sensor_id;sensor_type;location;lat;lon;timestamp;P1;durP1;ratioP1;P2;durP2;ratioP2
49610;SDS011;35515;48.766;9.176;2023-05-07T00:00:09;9.10;;;5.32;;
49610;SDS011;35515;48.766;9.176;2023-05-07T00:02:36;8.43;;;4.15;;
49610;SDS011;35515;48.766;9.176;2023-05-07T00:05:03;7.45;;;3.78;;
49610;SDS011;35515;48.766;9.176;2023-05-07T00:07:30;6.82;;;3.90;;
49610;SDS011;35515;48.766;9.176;2023-05-07T00:09:57;6.20;;;3.85;;
49610;SDS011;35515;48.766;9.176;2023-05-07T00:12:25;5.88;;;4.03;;
49610;SDS011;35515;48.766;9.176;2023-05-07T00:14:51;6.68;;;3.97;;
49610;SDS011;35515;48.766;9.176;2023-05-07T00:17:18;6.93;;;4.25;;
49610;SDS011;35515;48.766;9.176;2023-05-07T00:19:44;8.25;;;4.18;;
49610;SDS011;35515;48.766;9.176;2023-05-07T00:22:11;6.30;;;4.20;;
49610;SDS011;35515;48.766;9.176;2023-05-07T00:24:38;7.97;;;4.20;;
49610;SDS011;35515;48.766;9.176;2023-05-07T00:27:04;5.72;;;4.40;;
49610;SDS011;35515;48.766;9.176;2023-05-07T00:29:32;5.82;;;4.18;;
49610;SDS011;35515;48.766;9.176;2023-05-07T00:31:59;5.03;;;3.92;;
49610;SDS011;35515;48.766;9.176;2023-05-07T00:34:25;6.30;;;4.32;;
49610;SDS011;35515;48.766;9.176;2023-05-07T00:36:51;5.72;;;4.00;;
49610;SDS011;35515;48.766;9.176;2023-05-07T00:39:18;6.35;;;4.38;;
49610;SDS011;35515;48.766;9.176;2023-05-07T00:41:45;6.30;;;3.72;;
49610;SDS011;35515;48.766;9.176;2023-05-07T00:44:12;5.95;;;3.70;;
49610;SDS011;35515;48.766;9.176;2023-05-07T00:46:40;6.55;;;3.85;;
49610;SDS011;35515;48.766;9.176;2023-05-07T00:49:07;5.32;;;3.70;;
49610;SDS011;35515;48.766;9.176;2023-05-07T00:51:34;6.72;;;3.90;;
49610;SDS011;35515;48.766;9.176;2023-05-07T00:54:01;6.20;;;3.80;;
49610;SDS011;35515;48.766;9.176;2023-05-07T00:56:28;5.70;;;3.90;;
49610;SDS011;35515;48.766;9.176;2023-05-07T00:58:55;5.45;;;3.85;;
49610;SDS011;35515;48.766;9.176;2023-05-07T01:01:22;4.53;;;3.88;;
49610;SDS011;35515;48.766;9.176;2023-05-07T01:03:50;5.93;;;3.90;;
49610;SDS011;35515;48.766;9.176;2023-05-07T01:06:16;7.13;;;4.43;;
49610;SDS011;35515;48.766;9.176;2023-05-07T01:08:44;7.22;;;3.83;;
49610;SDS011;35515;48.766;9.176;2023-05-07T01:11:11;4.78;;;4.00;;
49610;SDS011;35515;48.766;9.176;2023-05-07T01:13:38;6.55;;;4.38;;
49610;SDS011;35515;48.766;9.176;2023-05-07T01:16:05;5.72;;;3.80;;
49610;SDS011;35515;48.766;9.176;2023-05-07T01:18:32;5.57;;;3.83;;
49610;SDS011;35515;48.766;9.176;2023-05-07T01:21:00;5.38;;;4.13;;
49610;SDS011;35515;48.766;9.176;2023-05-07T01:23:31;5.35;;;4.07;;
49610;SDS011;35515;48.766;9.176;2023-05-07T01:26:00;5.13;;;3.80;;
49610;SDS011;35515;48.766;9.176;2023-05-07T01:28:26;5.47;;;4.05;;
49610;SDS011;35515;48.766;9.176;2023-05-07T01:30:54;6.47;;;3.80;;
49610;SDS011;35515;48.766;9.176;2023-05-07T01:33:24;6.35;;;4.10;;
49610;SDS011;35515;48.766;9.176;2023-05-07T01:35:56;8.13;;;3.88;;
49610;SDS011;35515;48.766;9.176;2023-05-07T01:38:25;5.05;;;3.58;;
49610;SDS011;35515;48.766;9.176;2023-05-07T01:40:54;4.60;;;3.50;;
49610;SDS011;35515;48.766;9.176;2023-05-07T01:43:22;6.40;;;4.22;;
49610;SDS011;35515;48.766;9.176;2023-05-07T01:45:48;9.80;;;4.65;;
49610;SDS011;35515;48.766;9.176;2023-05-07T01:48:15;4.45;;;3.85;;
49610;SDS011;35515;48.766;9.176;2023-05-07T01:50:43;5.88;;;3.95;;
49610;SDS011;35515;48.766;9.176;2023-05-07T01:53:10;6.70;;;4.15;;
49610;SDS011;35515;48.766;9.176;2023-05-07T01:55:36;5.40;;;3.92;;
49610;SDS011;35515;48.766;9.176;2023-05-07T01:58:04;5.35;;;3.90;;
49610;SDS011;35515;48.766;9.176;2023-05-07T02:00:31;5.55;;;4.25;;
49610;SDS011;35515;48.766;9.176;2023-05-07T02:02:58;4.40;;;3.70;;
49610;SDS011;35515;48.766;9.176;2023-05-07T02:05:24;5.30;;;4.13;;
49610;SDS011;35515;48.766;9.176;2023-05-07T02:07:51;5.35;;;4.35;;
49610;SDS011;35515;48.766;9.176;2023-05-07T02:10:17;7.80;;;4.00;;
49610;SDS011;35515;48.766;9.176;2023-05-07T02:12:44;9.13;;;3.97;;
49610;SDS011;35515;48.766;9.176;2023-05-07T02:15:12;5.53;;;4.07;;
49610;SDS011;35515;48.766;9.176;2023-05-07T02:17:39;7.22;;;4.15;;
49610;SDS011;35515;48.766;9.176;2023-05-07T02:20:23;6.03;;;4.60;;
49610;SDS011;35515;48.766;9.176;2023-05-07T02:22:50;5.72;;;4.25;;
49610;SDS011;35515;48.766;9.176;2023-05-07T02:25:16;6.30;;;3.90;;
49610;SDS011;35515;48.766;9.176;2023-05-07T02:27:43;5.18;;;4.00;;
49610;SDS011;35515;48.766;9.176;2023-05-07T02:30:10;6.43;;;4.38;;
49610;SDS011;35515;48.766;9.176;2023-05-07T02:32:38;5.68;;;4.00;;
49610;SDS011;35515;48.766;9.176;2023-05-07T02:35:05;5.35;;;3.72;;
49610;SDS011;35515;48.766;9.176;2023-05-07T02:37:32;6.47;;;4.25;;
49610;SDS011;35515;48.766;9.176;2023-05-07T02:39:58;6.55;;;4.47;;
49610;SDS011;35515;48.766;9.176;2023-05-07T02:42:25;5.82;;;4.38;;
49610;SDS011;35515;48.766;9.176;2023-05-07T02:44:51;5.43;;;3.92;;
49610;SDS011;35515;48.766;9.176;2023-05-07T02:47:19;5.88;;;3.92;;
49610;SDS011;35515;48.766;9.176;2023-05-07T02:49:46;4.40;;;3.63;;
49610;SDS011;35515;48.766;9.176;2023-05-07T02:52:12;5.40;;;4.20;;
49610;SDS011;35515;48.766;9.176;2023-05-07T02:54:39;5.72;;;4.00;;
49610;SDS011;35515;48.766;9.176;2023-05-07T02:57:05;6.38;;;4.05;;
49610;SDS011;35515;48.766;9.176;2023-05-07T02:59:32;5.97;;;4.10;;
49610;SDS011;35515;48.766;9.176;2023-05-07T03:01:58;5.82;;;3.88;;
49610;SDS011;35515;48.766;9.176;2023-05-07T03:04:26;6.25;;;3.92;;
49610;SDS011;35515;48.766;9.176;2023-05-07T03:06:53;6.15;;;4.22;;
49610;SDS011;35515;48.766;9.176;2023-05-07T03:09:19;7.93;;;4.63;;
49610;SDS011;35515;48.766;9.176;2023-05-07T03:11:46;4.15;;;3.70;;
49610;SDS011;35515;48.766;9.176;2023-05-07T03:14:13;5.82;;;4.13;;
49610;SDS011;35515;48.766;9.176;2023-05-07T03:16:39;5.60;;;4.00;;
49610;SDS011;35515;48.766;9.176;2023-05-07T03:19:06;5.53;;;3.90;;
49610;SDS011;35515;48.766;9.176;2023-05-07T03:21:34;5.72;;;3.83;;
49610;SDS011;35515;48.766;9.176;2023-05-07T03:24:00;5.93;;;3.95;;
49610;SDS011;35515;48.766;9.176;2023-05-07T03:26:27;5.78;;;4.20;;
49610;SDS011;35515;48.766;9.176;2023-05-07T03:28:54;8.23;;;4.05;;
49610;SDS011;35515;48.766;9.176;2023-05-07T03:31:20;5.93;;;3.75;;
49610;SDS011;35515;48.766;9.176;2023-05-07T03:33:50;6.78;;;3.65;;
49610;SDS011;35515;48.766;9.176;2023-05-07T03:36:18;5.60;;;4.07;;
49610;SDS011;35515;48.766;9.176;2023-05-07T03:38:45;7.53;;;4.18;;
49610;SDS011;35515;48.766;9.176;2023-05-07T03:41:12;5.20;;;3.60;;
49610;SDS011;35515;48.766;9.176;2023-05-07T03:43:39;5.03;;;4.10;;
49610;SDS011;35515;48.766;9.176;2023-05-07T03:46:05;5.60;;;3.85;;
49610;SDS011;35515;48.766;9.176;2023-05-07T03:48:32;4.85;;;4.10;;
49610;SDS011;35515;48.766;9.176;2023-05-07T03:50:59;5.10;;;3.97;;
49610;SDS011;35515;48.766;9.176;2023-05-07T03:53:25;7.60;;;4.20;;
49610;SDS011;35515;48.766;9.176;2023-05-07T03:55:53;5.88;;;3.97;;
49610;SDS011;35515;48.766;9.176;2023-05-07T03:58:20;5.28;;;4.22;;
49610;SDS011;35515;48.766;9.176;2023-05-07T04:00:46;6.05;;;3.90;;
49610;SDS011;35515;48.766;9.176;2023-05-07T04:03:13;7.20;;;4.35;;
49610;SDS011;35515;48.766;9.176;2023-05-07T04:05:40;5.30;;;4.38;;
49610;SDS011;35515;48.766;9.176;2023-05-07T04:08:07;6.28;;;4.00;;
49610;SDS011;35515;48.766;9.176;2023-05-07T04:10:33;5.60;;;4.13;;
49610;SDS011;35515;48.766;9.176;2023-05-07T04:13:01;8.63;;;4.25;;
49610;SDS011;35515;48.766;9.176;2023-05-07T04:15:28;5.28;;;3.85;;
49610;SDS011;35515;48.766;9.176;2023-05-07T04:17:54;7.55;;;3.67;;
49610;SDS011;35515;48.766;9.176;2023-05-07T04:20:21;6.30;;;4.10;;
49610;SDS011;35515;48.766;9.176;2023-05-07T04:22:47;7.05;;;4.07;;
49610;SDS011;35515;48.766;9.176;2023-05-07T04:25:14;6.22;;;4.32;;
49610;SDS011;35515;48.766;9.176;2023-05-07T04:27:42;4.20;;;3.60;;
49610;SDS011;35515;48.766;9.176;2023-05-07T04:30:10;5.28;;;3.83;;
49610;SDS011;35515;48.766;9.176;2023-05-07T04:32:38;5.22;;;4.00;;
49610;SDS011;35515;48.766;9.176;2023-05-07T04:35:05;7.80;;;4.20;;
49610;SDS011;35515;48.766;9.176;2023-05-07T04:37:32;4.55;;;4.05;;
49610;SDS011;35515;48.766;9.176;2023-05-07T04:39:59;5.50;;;4.10;;
49610;SDS011;35515;48.766;9.176;2023-05-07T04:42:25;5.10;;;3.83;;
49610;SDS011;35515;48.766;9.176;2023-05-07T04:44:52;7.07;;;3.92;;
49610;SDS011;35515;48.766;9.176;2023-05-07T04:47:21;5.88;;;3.63;;
49610;SDS011;35515;48.766;9.176;2023-05-07T04:49:47;6.22;;;3.90;;
49610;SDS011;35515;48.766;9.176;2023-05-07T04:52:14;5.75;;;4.28;;
49610;SDS011;35515;48.766;9.176;2023-05-07T04:54:41;4.95;;;3.90;;
49610;SDS011;35515;48.766;9.176;2023-05-07T04:57:08;6.68;;;4.18;;
49610;SDS011;35515;48.766;9.176;2023-05-07T04:59:34;6.85;;;4.03;;
49610;SDS011;35515;48.766;9.176;2023-05-07T05:02:01;5.80;;;3.95;;
49610;SDS011;35515;48.766;9.176;2023-05-07T05:04:30;5.72;;;3.90;;
49610;SDS011;35515;48.766;9.176;2023-05-07T05:06:57;8.02;;;4.25;;
49610;SDS011;35515;48.766;9.176;2023-05-07T05:09:24;4.60;;;3.72;;
49610;SDS011;35515;48.766;9.176;2023-05-07T05:11:50;6.70;;;3.65;;
49610;SDS011;35515;48.766;9.176;2023-05-07T05:14:17;6.13;;;4.00;;
49610;SDS011;35515;48.766;9.176;2023-05-07T05:16:43;8.18;;;3.83;;
49610;SDS011;35515;48.766;9.176;2023-05-07T05:19:10;5.70;;;4.28;;
49610;SDS011;35515;48.766;9.176;2023-05-07T05:21:38;6.85;;;4.13;;
49610;SDS011;35515;48.766;9.176;2023-05-07T05:24:04;5.70;;;3.88;;
49610;SDS011;35515;48.766;9.176;2023-05-07T05:26:31;5.35;;;3.70;;
49610;SDS011;35515;48.766;9.176;2023-05-07T05:28:58;7.25;;;4.00;;
49610;SDS011;35515;48.766;9.176;2023-05-07T05:31:25;5.25;;;3.75;;
49610;SDS011;35515;48.766;9.176;2023-05-07T05:33:51;5.50;;;4.13;;
49610;SDS011;35515;48.766;9.176;2023-05-07T05:36:18;6.43;;;4.05;;
49610;SDS011;35515;48.766;9.176;2023-05-07T05:38:46;5.75;;;3.85;;
49610;SDS011;35515;48.766;9.176;2023-05-07T05:41:12;5.50;;;3.65;;
49610;SDS011;35515;48.766;9.176;2023-05-07T05:43:39;5.88;;;3.60;;
49610;SDS011;35515;48.766;9.176;2023-05-07T05:46:05;4.07;;;3.45;;
49610;SDS011;35515;48.766;9.176;2023-05-07T05:48:33;6.25;;;4.00;;
49610;SDS011;35515;48.766;9.176;2023-05-07T05:51:00;4.47;;;3.70;;
49610;SDS011;35515;48.766;9.176;2023-05-07T05:53:26;4.85;;;3.83;;
49610;SDS011;35515;48.766;9.176;2023-05-07T05:55:54;4.65;;;3.60;;
49610;SDS011;35515;48.766;9.176;2023-05-07T05:58:21;6.95;;;4.60;;
49610;SDS011;35515;48.766;9.176;2023-05-07T06:00:47;5.88;;;4.97;;
49610;SDS011;35515;48.766;9.176;2023-05-07T06:03:17;8.57;;;5.30;;
49610;SDS011;35515;48.766;9.176;2023-05-07T06:05:43;6.47;;;5.10;;
49610;SDS011;35515;48.766;9.176;2023-05-07T06:08:10;8.25;;;5.13;;
49610;SDS011;35515;48.766;9.176;2023-05-07T06:10:36;6.22;;;5.07;;
49610;SDS011;35515;48.766;9.176;2023-05-07T06:13:04;6.30;;;4.80;;
49610;SDS011;35515;48.766;9.176;2023-05-07T06:15:31;7.43;;;4.85;;
49610;SDS011;35515;48.766;9.176;2023-05-07T06:17:57;7.65;;;5.30;;
49610;SDS011;35515;48.766;9.176;2023-05-07T06:20:24;6.90;;;5.15;;
49610;SDS011;35515;48.766;9.176;2023-05-07T06:22:51;6.13;;;4.95;;
49610;SDS011;35515;48.766;9.176;2023-05-07T06:25:17;7.90;;;5.45;;
49610;SDS011;35515;48.766;9.176;2023-05-07T06:27:44;6.00;;;4.90;;
49610;SDS011;35515;48.766;9.176;2023-05-07T06:30:12;6.93;;;4.55;;
49610;SDS011;35515;48.766;9.176;2023-05-07T06:32:39;6.43;;;4.32;;
49610;SDS011;35515;48.766;9.176;2023-05-07T06:35:06;7.13;;;5.57;;
49610;SDS011;35515;48.766;9.176;2023-05-07T06:37:33;6.82;;;4.50;;
49610;SDS011;35515;48.766;9.176;2023-05-07T06:40:00;7.18;;;5.00;;
49610;SDS011;35515;48.766;9.176;2023-05-07T06:42:26;7.80;;;5.20;;
49610;SDS011;35515;48.766;9.176;2023-05-07T06:44:53;7.95;;;5.15;;
49610;SDS011;35515;48.766;9.176;2023-05-07T06:47:21;10.98;;;7.65;;
49610;SDS011;35515;48.766;9.176;2023-05-07T06:49:47;7.55;;;5.75;;
49610;SDS011;35515;48.766;9.176;2023-05-07T06:52:14;8.70;;;6.22;;
49610;SDS011;35515;48.766;9.176;2023-05-07T06:54:40;7.50;;;5.53;;
49610;SDS011;35515;48.766;9.176;2023-05-07T06:57:07;8.05;;;5.70;;
49610;SDS011;35515;48.766;9.176;2023-05-07T06:59:34;11.05;;;5.57;;
49610;SDS011;35515;48.766;9.176;2023-05-07T07:02:00;8.50;;;5.80;;
49610;SDS011;35515;48.766;9.176;2023-05-07T07:04:28;9.70;;;6.72;;
49610;SDS011;35515;48.766;9.176;2023-05-07T07:06:55;16.58;;;10.32;;
49610;SDS011;35515;48.766;9.176;2023-05-07T07:09:22;9.77;;;7.60;;
49610;SDS011;35515;48.766;9.176;2023-05-07T07:11:48;12.00;;;6.32;;
49610;SDS011;35515;48.766;9.176;2023-05-07T07:14:15;8.13;;;6.15;;
49610;SDS011;35515;48.766;9.176;2023-05-07T07:16:41;7.93;;;5.65;;
49610;SDS011;35515;48.766;9.176;2023-05-07T07:19:08;7.75;;;6.00;;
49610;SDS011;35515;48.766;9.176;2023-05-07T07:21:36;8.48;;;6.18;;
49610;SDS011;35515;48.766;9.176;2023-05-07T07:24:02;8.32;;;5.68;;
49610;SDS011;35515;48.766;9.176;2023-05-07T07:26:29;8.15;;;5.80;;
49610;SDS011;35515;48.766;9.176;2023-05-07T07:28:56;7.18;;;5.70;;
49610;SDS011;35515;48.766;9.176;2023-05-07T07:31:22;7.13;;;5.70;;
49610;SDS011;35515;48.766;9.176;2023-05-07T07:33:49;7.28;;;5.18;;
49610;SDS011;35515;48.766;9.176;2023-05-07T07:36:16;7.50;;;6.15;;
49610;SDS011;35515;48.766;9.176;2023-05-07T07:38:43;9.38;;;5.63;;
49610;SDS011;35515;48.766;9.176;2023-05-07T07:41:10;9.75;;;6.22;;
49610;SDS011;35515;48.766;9.176;2023-05-07T07:43:37;9.85;;;6.18;;
49610;SDS011;35515;48.766;9.176;2023-05-07T07:46:03;7.32;;;5.13;;
49610;SDS011;35515;48.766;9.176;2023-05-07T07:48:30;6.57;;;5.47;;
49610;SDS011;35515;48.766;9.176;2023-05-07T07:50:57;8.27;;;5.88;;
49610;SDS011;35515;48.766;9.176;2023-05-07T07:53:23;8.75;;;5.13;;
49610;SDS011;35515;48.766;9.176;2023-05-07T07:55:51;7.55;;;4.82;;
49610;SDS011;35515;48.766;9.176;2023-05-07T07:58:18;8.02;;;6.25;;
49610;SDS011;35515;48.766;9.176;2023-05-07T08:00:44;7.72;;;5.20;;
49610;SDS011;35515;48.766;9.176;2023-05-07T08:03:12;6.40;;;4.80;;
49610;SDS011;35515;48.766;9.176;2023-05-07T08:05:39;5.15;;;3.92;;
49610;SDS011;35515;48.766;9.176;2023-05-07T08:08:05;6.40;;;4.40;;
49610;SDS011;35515;48.766;9.176;2023-05-07T08:10:32;7.10;;;4.47;;
49610;SDS011;35515;48.766;9.176;2023-05-07T08:13:01;5.57;;;3.83;;
49610;SDS011;35515;48.766;9.176;2023-05-07T08:15:28;5.68;;;3.63;;
49610;SDS011;35515;48.766;9.176;2023-05-07T08:17:55;4.70;;;3.53;;
49610;SDS011;35515;48.766;9.176;2023-05-07T08:20:22;4.90;;;3.33;;
49610;SDS011;35515;48.766;9.176;2023-05-07T08:22:48;4.63;;;3.22;;
49610;SDS011;35515;48.766;9.176;2023-05-07T08:25:15;4.57;;;3.60;;
49610;SDS011;35515;48.766;9.176;2023-05-07T08:27:42;4.55;;;3.13;;
49610;SDS011;35515;48.766;9.176;2023-05-07T08:30:12;3.78;;;3.22;;
49610;SDS011;35515;48.766;9.176;2023-05-07T08:32:39;5.25;;;3.15;;
49610;SDS011;35515;48.766;9.176;2023-05-07T08:35:06;3.85;;;2.83;;
49610;SDS011;35515;48.766;9.176;2023-05-07T08:37:33;3.78;;;3.20;;
49610;SDS011;35515;48.766;9.176;2023-05-07T08:39:59;4.72;;;3.55;;
49610;SDS011;35515;48.766;9.176;2023-05-07T08:42:26;4.57;;;2.92;;
49610;SDS011;35515;48.766;9.176;2023-05-07T08:44:54;4.38;;;3.38;;
49610;SDS011;35515;48.766;9.176;2023-05-07T08:47:31;4.53;;;3.00;;
49610;SDS011;35515;48.766;9.176;2023-05-07T08:50:05;5.22;;;3.80;;
49610;SDS011;35515;48.766;9.176;2023-05-07T08:52:33;5.18;;;3.22;;
49610;SDS011;35515;48.766;9.176;2023-05-07T08:55:01;5.35;;;3.58;;
49610;SDS011;35515;48.766;9.176;2023-05-07T08:57:28;4.95;;;2.60;;
49610;SDS011;35515;48.766;9.176;2023-05-07T08:59:55;4.68;;;3.17;;
49610;SDS011;35515;48.766;9.176;2023-05-07T09:02:22;3.78;;;3.08;;
49610;SDS011;35515;48.766;9.176;2023-05-07T09:04:50;5.32;;;2.90;;
49610;SDS011;35515;48.766;9.176;2023-05-07T09:07:16;3.33;;;2.55;;
49610;SDS011;35515;48.766;9.176;2023-05-07T09:09:43;3.47;;;2.90;;
49610;SDS011;35515;48.766;9.176;2023-05-07T09:12:10;4.40;;;2.90;;
49610;SDS011;35515;48.766;9.176;2023-05-07T09:14:37;5.07;;;3.03;;
49610;SDS011;35515;48.766;9.176;2023-05-07T09:17:04;3.72;;;2.17;;
49610;SDS011;35515;48.766;9.176;2023-05-07T09:19:30;3.22;;;2.55;;
49610;SDS011;35515;48.766;9.176;2023-05-07T09:22:01;5.13;;;2.63;;
49610;SDS011;35515;48.766;9.176;2023-05-07T09:24:30;4.43;;;2.45;;
49610;SDS011;35515;48.766;9.176;2023-05-07T09:27:00;4.55;;;2.50;;
49610;SDS011;35515;48.766;9.176;2023-05-07T09:29:27;5.40;;;2.72;;
49610;SDS011;35515;48.766;9.176;2023-05-07T09:31:55;3.00;;;2.25;;
49610;SDS011;35515;48.766;9.176;2023-05-07T09:34:21;3.15;;;2.33;;
49610;SDS011;35515;48.766;9.176;2023-05-07T09:36:48;4.57;;;2.90;;
49610;SDS011;35515;48.766;9.176;2023-05-07T09:39:16;5.68;;;3.42;;
49610;SDS011;35515;48.766;9.176;2023-05-07T09:41:43;5.45;;;2.65;;
49610;SDS011;35515;48.766;9.176;2023-05-07T09:44:10;4.82;;;2.50;;
49610;SDS011;35515;48.766;9.176;2023-05-07T09:46:37;4.03;;;2.63;;
49610;SDS011;35515;48.766;9.176;2023-05-07T09:49:05;3.97;;;2.50;;
49610;SDS011;35515;48.766;9.176;2023-05-07T09:51:39;4.18;;;2.80;;
49610;SDS011;35515;48.766;9.176;2023-05-07T09:54:09;3.25;;;2.03;;
49610;SDS011;35515;48.766;9.176;2023-05-07T09:56:38;3.70;;;2.17;;
49610;SDS011;35515;48.766;9.176;2023-05-07T09:59:06;5.93;;;2.58;;
49610;SDS011;35515;48.766;9.176;2023-05-07T10:01:35;3.95;;;2.33;;
49610;SDS011;35515;48.766;9.176;2023-05-07T10:04:02;4.68;;;2.75;;
49610;SDS011;35515;48.766;9.176;2023-05-07T10:06:29;4.97;;;2.50;;
49610;SDS011;35515;48.766;9.176;2023-05-07T10:08:56;4.72;;;2.42;;
49610;SDS011;35515;48.766;9.176;2023-05-07T10:11:23;3.97;;;2.85;;
49610;SDS011;35515;48.766;9.176;2023-05-07T10:13:51;3.83;;;3.17;;
49610;SDS011;35515;48.766;9.176;2023-05-07T10:16:18;6.90;;;4.63;;
49610;SDS011;35515;48.766;9.176;2023-05-07T10:18:46;5.07;;;3.95;;
49610;SDS011;35515;48.766;9.176;2023-05-07T10:21:14;4.18;;;3.00;;
49610;SDS011;35515;48.766;9.176;2023-05-07T10:23:43;6.13;;;3.00;;
49610;SDS011;35515;48.766;9.176;2023-05-07T10:26:11;3.75;;;2.92;;
49610;SDS011;35515;48.766;9.176;2023-05-07T10:28:41;4.80;;;2.78;;
49610;SDS011;35515;48.766;9.176;2023-05-07T10:31:15;5.95;;;2.92;;
49610;SDS011;35515;48.766;9.176;2023-05-07T10:33:53;4.05;;;2.88;;
49610;SDS011;35515;48.766;9.176;2023-05-07T10:36:22;3.58;;;2.88;;
49610;SDS011;35515;48.766;9.176;2023-05-07T10:38:50;4.53;;;2.75;;
49610;SDS011;35515;48.766;9.176;2023-05-07T10:41:17;5.32;;;2.60;;
49610;SDS011;35515;48.766;9.176;2023-05-07T10:43:45;4.57;;;2.75;;
49610;SDS011;35515;48.766;9.176;2023-05-07T10:46:13;5.38;;;2.40;;
49610;SDS011;35515;48.766;9.176;2023-05-07T10:51:37;5.43;;;3.03;;
49610;SDS011;35515;48.766;9.176;2023-05-07T10:54:21;5.78;;;2.60;;
49610;SDS011;35515;48.766;9.176;2023-05-07T10:56:49;5.38;;;2.70;;
49610;SDS011;35515;48.766;9.176;2023-05-07T10:59:30;9.13;;;4.38;;
49610;SDS011;35515;48.766;9.176;2023-05-07T11:02:00;6.43;;;3.42;;
49610;SDS011;35515;48.766;9.176;2023-05-07T11:04:29;6.43;;;4.67;;
49610;SDS011;35515;48.766;9.176;2023-05-07T11:09:59;6.88;;;3.65;;
49610;SDS011;35515;48.766;9.176;2023-05-07T11:12:48;4.03;;;2.90;;
49610;SDS011;35515;48.766;9.176;2023-05-07T11:15:16;3.45;;;2.40;;
49610;SDS011;35515;48.766;9.176;2023-05-07T11:18:11;3.83;;;2.50;;
49610;SDS011;35515;48.766;9.176;2023-05-07T11:20:48;8.27;;;6.20;;
49610;SDS011;35515;48.766;9.176;2023-05-07T11:26:16;6.47;;;4.85;;
49610;SDS011;35515;48.766;9.176;2023-05-07T11:28:43;7.28;;;2.90;;
49610;SDS011;35515;48.766;9.176;2023-05-07T11:31:10;6.47;;;4.05;;
49610;SDS011;35515;48.766;9.176;2023-05-07T11:33:38;3.85;;;2.20;;
49610;SDS011;35515;48.766;9.176;2023-05-07T11:36:05;7.35;;;3.00;;
49610;SDS011;35515;48.766;9.176;2023-05-07T11:38:34;3.70;;;2.67;;
49610;SDS011;35515;48.766;9.176;2023-05-07T11:41:04;3.28;;;2.80;;
49610;SDS011;35515;48.766;9.176;2023-05-07T11:43:31;3.28;;;2.22;;
49610;SDS011;35515;48.766;9.176;2023-05-07T11:46:04;4.32;;;2.63;;
49610;SDS011;35515;48.766;9.176;2023-05-07T11:48:32;3.70;;;2.58;;
49610;SDS011;35515;48.766;9.176;2023-05-07T11:51:01;7.45;;;6.22;;
49610;SDS011;35515;48.766;9.176;2023-05-07T11:53:35;7.03;;;4.67;;
49610;SDS011;35515;48.766;9.176;2023-05-07T11:56:05;6.70;;;3.00;;
49610;SDS011;35515;48.766;9.176;2023-05-07T11:58:32;4.35;;;2.53;;
49610;SDS011;35515;48.766;9.176;2023-05-07T12:00:59;6.05;;;2.88;;
49610;SDS011;35515;48.766;9.176;2023-05-07T12:03:25;4.18;;;2.85;;
49610;SDS011;35515;48.766;9.176;2023-05-07T12:05:52;3.75;;;2.85;;
49610;SDS011;35515;48.766;9.176;2023-05-07T12:08:21;4.97;;;2.80;;
49610;SDS011;35515;48.766;9.176;2023-05-07T12:10:48;3.38;;;2.50;;
49610;SDS011;35515;48.766;9.176;2023-05-07T12:13:16;4.72;;;3.25;;
49610;SDS011;35515;48.766;9.176;2023-05-07T12:15:43;3.85;;;3.10;;
49610;SDS011;35515;48.766;9.176;2023-05-07T12:18:10;6.50;;;3.35;;
49610;SDS011;35515;48.766;9.176;2023-05-07T12:20:37;6.82;;;4.22;;
49610;SDS011;35515;48.766;9.176;2023-05-07T12:23:07;3.30;;;1.77;;
49610;SDS011;35515;48.766;9.176;2023-05-07T12:25:35;4.05;;;1.60;;
49610;SDS011;35515;48.766;9.176;2023-05-07T12:28:02;3.72;;;2.03;;
49610;SDS011;35515;48.766;9.176;2023-05-07T12:30:30;3.72;;;2.10;;
49610;SDS011;35515;48.766;9.176;2023-05-07T12:32:56;7.22;;;2.53;;
49610;SDS011;35515;48.766;9.176;2023-05-07T12:35:26;9.13;;;2.80;;
49610;SDS011;35515;48.766;9.176;2023-05-07T12:37:56;6.45;;;3.20;;
49610;SDS011;35515;48.766;9.176;2023-05-07T12:40:24;7.57;;;4.05;;
49610;SDS011;35515;48.766;9.176;2023-05-07T12:43:02;9.07;;;4.35;;
49610;SDS011;35515;48.766;9.176;2023-05-07T12:45:28;7.68;;;4.57;;
49610;SDS011;35515;48.766;9.176;2023-05-07T12:47:55;9.85;;;3.38;;
49610;SDS011;35515;48.766;9.176;2023-05-07T12:50:30;11.50;;;4.53;;
49610;SDS011;35515;48.766;9.176;2023-05-07T12:52:57;21.05;;;9.43;;
49610;SDS011;35515;48.766;9.176;2023-05-07T12:55:24;11.18;;;4.90;;
49610;SDS011;35515;48.766;9.176;2023-05-07T12:57:51;8.25;;;2.83;;
49610;SDS011;35515;48.766;9.176;2023-05-07T13:00:33;5.53;;;2.40;;
49610;SDS011;35515;48.766;9.176;2023-05-07T13:03:03;5.78;;;2.28;;
49610;SDS011;35515;48.766;9.176;2023-05-07T13:05:30;9.90;;;3.33;;
49610;SDS011;35515;48.766;9.176;2023-05-07T13:07:57;12.65;;;6.55;;
49610;SDS011;35515;48.766;9.176;2023-05-07T13:10:24;14.77;;;8.40;;
49610;SDS011;35515;48.766;9.176;2023-05-07T13:12:51;9.35;;;2.90;;
49610;SDS011;35515;48.766;9.176;2023-05-07T13:15:18;5.63;;;3.55;;
49610;SDS011;35515;48.766;9.176;2023-05-07T13:17:46;6.50;;;3.40;;
49610;SDS011;35515;48.766;9.176;2023-05-07T13:20:12;5.95;;;2.47;;
49610;SDS011;35515;48.766;9.176;2023-05-07T13:22:40;2.33;;;1.45;;
49610;SDS011;35515;48.766;9.176;2023-05-07T13:25:07;5.20;;;2.35;;
49610;SDS011;35515;48.766;9.176;2023-05-07T13:27:34;7.85;;;2.75;;
49610;SDS011;35515;48.766;9.176;2023-05-07T13:30:02;4.75;;;2.25;;
49610;SDS011;35515;48.766;9.176;2023-05-07T13:32:29;6.80;;;2.47;;
49610;SDS011;35515;48.766;9.176;2023-05-07T13:34:57;4.18;;;2.33;;
49610;SDS011;35515;48.766;9.176;2023-05-07T13:37:24;4.25;;;2.15;;
49610;SDS011;35515;48.766;9.176;2023-05-07T13:39:50;4.13;;;2.38;;
49610;SDS011;35515;48.766;9.176;2023-05-07T13:42:17;4.25;;;1.85;;
49610;SDS011;35515;48.766;9.176;2023-05-07T13:44:43;5.93;;;2.00;;
49610;SDS011;35515;48.766;9.176;2023-05-07T13:47:10;5.15;;;2.03;;
49610;SDS011;35515;48.766;9.176;2023-05-07T13:49:37;6.78;;;3.28;;
49610;SDS011;35515;48.766;9.176;2023-05-07T13:52:04;8.40;;;3.67;;
49610;SDS011;35515;48.766;9.176;2023-05-07T13:54:31;5.75;;;2.40;;
49610;SDS011;35515;48.766;9.176;2023-05-07T13:56:57;3.60;;;2.05;;
49610;SDS011;35515;48.766;9.176;2023-05-07T13:59:24;4.28;;;2.10;;
49610;SDS011;35515;48.766;9.176;2023-05-07T14:01:50;3.83;;;1.67;;
49610;SDS011;35515;48.766;9.176;2023-05-07T14:04:17;5.45;;;1.50;;
49610;SDS011;35515;48.766;9.176;2023-05-07T14:06:43;4.43;;;1.65;;
49610;SDS011;35515;48.766;9.176;2023-05-07T14:09:11;3.70;;;1.92;;
49610;SDS011;35515;48.766;9.176;2023-05-07T14:11:38;4.90;;;1.88;;
49610;SDS011;35515;48.766;9.176;2023-05-07T14:14:05;3.22;;;2.00;;
49610;SDS011;35515;48.766;9.176;2023-05-07T14:16:31;4.35;;;2.33;;
49610;SDS011;35515;48.766;9.176;2023-05-07T14:18:58;2.42;;;1.90;;
49610;SDS011;35515;48.766;9.176;2023-05-07T14:21:24;3.65;;;2.00;;
49610;SDS011;35515;48.766;9.176;2023-05-07T14:23:51;5.50;;;2.30;;
49610;SDS011;35515;48.766;9.176;2023-05-07T14:26:19;5.00;;;2.35;;
49610;SDS011;35515;48.766;9.176;2023-05-07T14:28:46;3.90;;;2.40;;
49610;SDS011;35515;48.766;9.176;2023-05-07T14:31:12;4.95;;;2.70;;
49610;SDS011;35515;48.766;9.176;2023-05-07T14:33:39;6.53;;;3.15;;
49610;SDS011;35515;48.766;9.176;2023-05-07T14:36:06;4.13;;;2.35;;
49610;SDS011;35515;48.766;9.176;2023-05-07T14:38:32;3.92;;;2.55;;
49610;SDS011;35515;48.766;9.176;2023-05-07T14:40:59;6.78;;;2.75;;
49610;SDS011;35515;48.766;9.176;2023-05-07T14:43:27;8.23;;;2.90;;
49610;SDS011;35515;48.766;9.176;2023-05-07T14:45:53;6.13;;;2.63;;
49610;SDS011;35515;48.766;9.176;2023-05-07T14:48:20;4.68;;;2.88;;
49610;SDS011;35515;48.766;9.176;2023-05-07T14:50:47;3.30;;;2.60;;
49610;SDS011;35515;48.766;9.176;2023-05-07T14:53:13;3.08;;;2.20;;
49610;SDS011;35515;48.766;9.176;2023-05-07T14:55:40;12.30;;;7.28;;
49610;SDS011;35515;48.766;9.176;2023-05-07T14:58:06;3.72;;;2.25;;